createdAt,value
2022-11-26T00:02:31.174Z,5.10
2022-11-26T00:04:59.418Z,5.00
2022-11-26T00:07:29.283Z,5.00
2022-11-26T00:09:58.572Z,5.00
2022-11-26T00:12:27.725Z,5.00
2022-11-26T00:14:54.658Z,4.90
2022-11-26T00:17:22.066Z,4.90
2022-11-26T00:19:48.867Z,4.90
2022-11-26T00:22:25.562Z,4.90
2022-11-26T00:24:53.684Z,4.80
2022-11-26T00:27:20.777Z,4.80
2022-11-26T00:29:47.432Z,4.80
2022-11-26T00:32:23.506Z,4.80
2022-11-26T00:34:50.284Z,4.80
2022-11-26T00:37:32.499Z,4.70
2022-11-26T00:39:59.444Z,4.70
2022-11-26T00:42:26.141Z,4.70
2022-11-26T00:44:52.839Z,4.70
2022-11-26T00:47:19.579Z,4.70
2022-11-26T00:49:46.231Z,4.60
2022-11-26T00:52:32.546Z,4.60
2022-11-26T00:54:59.958Z,4.60
2022-11-26T00:57:28.060Z,4.50
2022-11-26T00:59:54.809Z,4.50
2022-11-26T01:02:21.559Z,4.50
2022-11-26T01:04:48.280Z,4.50
2022-11-26T01:07:15.260Z,4.50
2022-11-26T01:09:44.248Z,4.50
2022-11-26T01:12:15.132Z,4.50
2022-11-26T01:14:41.805Z,4.40
2022-11-26T01:17:11.305Z,4.40
2022-11-26T01:19:38.025Z,4.40
2022-11-26T01:22:06.446Z,4.40
2022-11-26T01:24:33.251Z,4.30
2022-11-26T01:26:59.997Z,4.30
2022-11-26T01:29:26.747Z,4.30
2022-11-26T01:31:53.568Z,4.30
2022-11-26T01:34:20.331Z,4.30
2022-11-26T01:36:47.032Z,4.30
2022-11-26T01:39:19.119Z,4.20
2022-11-26T01:42:18.110Z,4.20
2022-11-26T01:44:45.856Z,4.20
2022-11-26T01:47:38.816Z,4.20
2022-11-26T01:50:47.033Z,4.20
2022-11-26T01:53:35.818Z,4.20
2022-11-26T01:56:07.824Z,4.20
2022-11-26T01:58:45.209Z,4.20
2022-11-26T02:01:12.427Z,4.10
2022-11-26T02:03:54.445Z,4.10
2022-11-26T02:06:25.770Z,4.10
2022-11-26T02:08:53.585Z,4.10
2022-11-26T02:11:24.791Z,4.10
2022-11-26T02:13:57.469Z,4.10
2022-11-26T02:16:48.706Z,4.00
2022-11-26T02:19:45.578Z,4.00
2022-11-26T02:22:44.609Z,4.00
2022-11-26T02:25:20.447Z,4.00
2022-11-26T02:28:24.848Z,4.00
2022-11-26T02:31:24.308Z,4.00
2022-11-26T02:34:02.360Z,3.90
2022-11-26T02:36:35.773Z,3.90
2022-11-26T02:39:17.627Z,3.90
2022-11-26T02:41:51.137Z,3.90
2022-11-26T02:44:22.701Z,3.90
2022-11-26T02:46:53.426Z,3.90
2022-11-26T02:49:22.067Z,3.90
2022-11-26T02:51:56.658Z,3.90
2022-11-26T02:54:25.856Z,3.90
2022-11-26T02:56:53.337Z,3.90
2022-11-26T02:59:20.620Z,3.90
2022-11-26T03:02:09.553Z,3.80
2022-11-26T03:04:42.824Z,3.90
2022-11-26T03:07:10.572Z,3.80
2022-11-26T03:09:54.080Z,3.80
2022-11-26T03:12:22.289Z,3.80
2022-11-26T03:14:49.227Z,3.80
2022-11-26T03:17:16.632Z,3.80
2022-11-26T03:19:43.645Z,3.80
2022-11-26T03:22:10.619Z,3.80
2022-11-26T03:24:37.833Z,3.80
2022-11-26T03:27:07.617Z,3.80
2022-11-26T03:29:37.264Z,3.80
2022-11-26T03:32:04.270Z,3.80
2022-11-26T03:34:31.201Z,3.80
2022-11-26T03:36:57.928Z,3.80
2022-11-26T03:39:24.946Z,3.80
2022-11-26T03:41:51.604Z,3.80
2022-11-26T03:44:18.385Z,3.80
2022-11-26T03:46:46.088Z,3.80
2022-11-26T03:49:12.794Z,3.80
2022-11-26T03:51:39.496Z,3.80
2022-11-26T03:54:09.534Z,3.80
2022-11-26T03:56:39.046Z,3.90
2022-11-26T03:59:08.536Z,3.90
2022-11-26T04:01:35.430Z,3.90
2022-11-26T04:04:02.227Z,3.90
2022-11-26T04:06:29.284Z,3.90
2022-11-26T04:08:58.810Z,3.90
2022-11-26T04:11:25.524Z,3.90
2022-11-26T04:13:52.216Z,3.90
2022-11-26T04:16:20.563Z,3.90
2022-11-26T04:18:47.957Z,3.90
2022-11-26T04:21:14.889Z,3.90
2022-11-26T04:23:41.686Z,3.90
2022-11-26T04:26:08.364Z,3.90
2022-11-26T04:28:35.056Z,4.00
2022-11-26T04:31:01.800Z,4.00
2022-11-26T04:33:28.597Z,4.00
2022-11-26T04:35:58.404Z,4.00
2022-11-26T04:38:26.119Z,4.00
2022-11-26T04:40:53.588Z,3.90
2022-11-26T04:43:20.499Z,4.00
2022-11-26T04:45:47.261Z,3.90
2022-11-26T04:48:14.419Z,4.00
2022-11-26T04:50:41.140Z,4.00
2022-11-26T04:53:07.993Z,3.90
2022-11-26T04:55:34.784Z,4.00
2022-11-26T04:58:01.473Z,3.90
2022-11-26T05:00:28.184Z,4.00
2022-11-26T05:02:55.374Z,3.90
2022-11-26T05:05:22.169Z,3.90
2022-11-26T05:07:48.999Z,3.90
2022-11-26T05:10:15.702Z,4.00
2022-11-26T05:12:42.436Z,3.90
2022-11-26T05:15:09.559Z,4.00
2022-11-26T05:17:36.263Z,3.90
2022-11-26T05:20:03.588Z,3.90
2022-11-26T05:22:30.264Z,3.90
2022-11-26T05:24:58.548Z,3.90
2022-11-26T05:27:28.381Z,3.90
2022-11-26T05:29:57.837Z,3.90
2022-11-26T05:32:27.625Z,3.90
2022-11-26T05:34:59.707Z,3.90
2022-11-26T05:37:29.869Z,3.90
2022-11-26T05:39:56.549Z,3.90
2022-11-26T05:42:26.298Z,3.90
2022-11-26T05:44:52.999Z,3.90
2022-11-26T05:47:19.750Z,3.90
2022-11-26T05:49:46.491Z,3.90
2022-11-26T05:52:13.234Z,3.80
2022-11-26T05:54:40.180Z,3.80
2022-11-26T05:57:07.143Z,3.90
2022-11-26T05:59:33.894Z,3.80
2022-11-26T06:02:00.694Z,3.80
2022-11-26T06:04:27.460Z,3.80
2022-11-26T06:06:54.188Z,3.80
2022-11-26T06:09:21.002Z,3.80
2022-11-26T06:11:50.456Z,3.80
2022-11-26T06:14:18.129Z,3.80
2022-11-26T06:16:45.976Z,3.80
2022-11-26T06:19:12.715Z,3.80
2022-11-26T06:21:39.389Z,3.80
2022-11-26T06:24:08.833Z,3.80
2022-11-26T06:26:38.542Z,3.80
2022-11-26T06:29:05.549Z,3.80
2022-11-26T06:31:33.108Z,3.80
2022-11-26T06:33:59.911Z,3.80
2022-11-26T06:36:26.577Z,3.80
2022-11-26T06:38:53.323Z,3.80
2022-11-26T06:41:20.068Z,3.80
2022-11-26T06:43:46.812Z,3.80
2022-11-26T06:46:13.623Z,3.80
2022-11-26T06:48:40.539Z,3.80
2022-11-26T06:51:10.551Z,3.80
2022-11-26T06:53:37.507Z,3.90
2022-11-26T06:56:06.167Z,3.90
2022-11-26T06:58:33.716Z,3.90
2022-11-26T07:01:00.515Z,3.90
2022-11-26T07:03:33.103Z,3.90
2022-11-26T07:06:00.234Z,3.90
2022-11-26T07:08:26.924Z,3.90
2022-11-26T07:10:53.610Z,3.90
2022-11-26T07:13:20.380Z,4.00
2022-11-26T07:15:47.118Z,4.00
2022-11-26T07:18:13.889Z,4.00
2022-11-26T07:20:40.556Z,4.00
2022-11-26T07:23:08.527Z,4.00
2022-11-26T07:25:38.043Z,4.10
2022-11-26T07:28:04.868Z,4.10
2022-11-26T07:30:31.537Z,4.10
2022-11-26T07:32:58.234Z,4.10
2022-11-26T07:35:24.997Z,4.10
2022-11-26T07:37:51.701Z,4.20
2022-11-26T07:40:18.491Z,4.20
2022-11-26T07:42:49.206Z,4.20
2022-11-26T07:45:19.621Z,4.30
2022-11-26T07:47:46.285Z,4.30
2022-11-26T07:50:12.989Z,4.30
2022-11-26T07:52:39.657Z,4.40
2022-11-26T07:55:09.549Z,4.40
2022-11-26T07:57:40.078Z,4.40
2022-11-26T08:00:07.421Z,4.50
2022-11-26T08:02:34.111Z,4.50
2022-11-26T08:05:00.849Z,4.60
2022-11-26T08:07:29.364Z,4.60
2022-11-26T08:09:59.505Z,4.70
2022-11-26T08:12:26.385Z,4.70
2022-11-26T08:14:53.134Z,4.80
2022-11-26T08:17:19.830Z,4.90
2022-11-26T08:19:46.505Z,4.90
2022-11-26T08:22:13.346Z,5.00
2022-11-26T08:24:40.546Z,5.10
2022-11-26T08:27:10.335Z,5.20
2022-11-26T08:29:40.098Z,5.20
2022-11-26T08:32:09.826Z,5.30
2022-11-26T08:34:39.867Z,5.40
2022-11-26T08:37:09.678Z,5.50
2022-11-26T08:39:36.410Z,5.50
2022-11-26T08:42:03.200Z,5.60
2022-11-26T08:44:29.914Z,5.70
2022-11-26T08:46:56.593Z,5.80
2022-11-26T08:49:23.304Z,5.90
2022-11-26T08:51:49.994Z,5.90
2022-11-26T08:54:16.687Z,6.00
2022-11-26T08:56:43.493Z,6.10
2022-11-26T08:59:10.190Z,6.10
2022-11-26T09:01:37.022Z,6.20
2022-11-26T09:04:05.059Z,6.20
2022-11-26T09:06:33.852Z,6.30
2022-11-26T09:09:13.584Z,6.40
2022-11-26T09:11:40.615Z,6.40
2022-11-26T09:14:07.502Z,6.50
2022-11-26T09:16:34.744Z,6.60
2022-11-26T09:19:02.947Z,6.70
2022-11-26T09:21:30.244Z,6.70
2022-11-26T09:23:58.562Z,6.80
2022-11-26T09:26:25.681Z,6.80
2022-11-26T09:28:52.777Z,6.90
2022-11-26T09:31:20.577Z,7.00
2022-11-26T09:33:48.042Z,7.00
2022-11-26T09:36:15.991Z,7.10
2022-11-26T09:38:42.775Z,7.10
2022-11-26T09:41:28.183Z,7.20
2022-11-26T09:44:32.595Z,7.20
2022-11-26T09:47:14.707Z,7.30
2022-11-26T09:49:53.111Z,7.30
2022-11-26T09:52:23.225Z,7.40
2022-11-26T09:54:55.276Z,7.40
2022-11-26T09:57:41.991Z,7.50
2022-11-26T10:00:31.069Z,7.50
2022-11-26T10:02:58.847Z,7.60
2022-11-26T10:05:41.310Z,7.60
2022-11-26T10:08:45.820Z,7.70
2022-11-26T10:11:36.756Z,7.80
2022-11-26T10:14:24.595Z,7.80
2022-11-26T10:17:16.925Z,7.90
2022-11-26T10:20:04.808Z,8.00
2022-11-26T10:22:46.950Z,8.10
2022-11-26T10:25:18.528Z,8.10
2022-11-26T10:27:48.465Z,8.20
2022-11-26T10:30:25.356Z,8.30
2022-11-26T10:32:52.954Z,8.30
2022-11-26T10:35:22.809Z,8.40
2022-11-26T10:37:50.259Z,8.40
2022-11-26T10:40:19.760Z,8.50
2022-11-26T10:43:01.676Z,8.60
2022-11-26T10:45:37.545Z,8.70
2022-11-26T10:48:31.980Z,8.70
2022-11-26T10:51:04.744Z,8.80
2022-11-26T10:53:48.390Z,8.90
2022-11-26T10:56:46.386Z,8.90
2022-11-26T10:59:22.290Z,9.00
2022-11-26T11:01:51.697Z,9.10
2022-11-26T11:04:45.807Z,9.10
2022-11-26T11:07:35.571Z,9.20
2022-11-26T11:10:06.763Z,9.30
2022-11-26T11:12:33.950Z,9.40
2022-11-26T11:15:19.204Z,9.50
2022-11-26T11:17:53.587Z,9.60
2022-11-26T11:20:29.869Z,9.60
2022-11-26T11:23:10.664Z,9.80
2022-11-26T11:25:44.366Z,9.90
2022-11-26T11:28:23.344Z,9.90
2022-11-26T11:31:21.275Z,10.00
2022-11-26T11:33:49.306Z,10.10
2022-11-26T11:36:28.480Z,10.20
2022-11-26T11:39:00.955Z,10.20
2022-11-26T11:41:30.424Z,10.30
2022-11-26T11:44:15.398Z,10.40
2022-11-26T11:47:07.114Z,10.40
2022-11-26T11:49:39.555Z,10.50
2022-11-26T11:52:18.205Z,10.50
2022-11-26T11:55:03.142Z,10.60
2022-11-26T11:57:44.752Z,10.70
2022-11-26T12:00:16.844Z,10.70
2022-11-26T12:03:09.391Z,10.70
2022-11-26T12:05:57.798Z,10.80
2022-11-26T12:08:51.751Z,10.90
2022-11-26T12:11:41.402Z,10.90
2022-11-26T12:14:29.328Z,11.00
2022-11-26T12:17:27.801Z,11.00
2022-11-26T12:20:04.687Z,11.10
2022-11-26T12:22:42.393Z,11.10
2022-11-26T12:25:12.098Z,11.20
2022-11-26T12:27:51.408Z,11.20
2022-11-26T12:30:22.507Z,11.30
2022-11-26T12:33:01.313Z,11.30
2022-11-26T12:35:28.045Z,11.30
2022-11-26T12:38:00.657Z,11.40
2022-11-26T12:40:40.563Z,11.40
2022-11-26T12:43:27.819Z,11.40
2022-11-26T12:46:14.360Z,11.40
2022-11-26T12:49:06.975Z,11.40
2022-11-26T12:52:10.962Z,11.50
2022-11-26T12:55:15.989Z,11.50
2022-11-26T12:58:09.773Z,11.50
2022-11-26T13:00:36.929Z,11.50
2022-11-26T13:03:07.179Z,11.50
2022-11-26T13:05:55.875Z,11.50
2022-11-26T13:08:51.888Z,11.50
2022-11-26T13:11:24.609Z,11.50
2022-11-26T13:13:51.321Z,11.50
2022-11-26T13:16:42.812Z,11.50
2022-11-26T13:19:34.002Z,11.60
2022-11-26T13:22:25.141Z,11.60
2022-11-26T13:25:02.443Z,11.60
2022-11-26T13:28:07.820Z,11.60
2022-11-26T13:31:11.405Z,11.60
2022-11-26T13:33:53.102Z,11.70
2022-11-26T13:36:29.283Z,11.70
2022-11-26T13:39:13.887Z,11.70
2022-11-26T13:41:52.358Z,11.70
2022-11-26T13:44:39.414Z,11.80
2022-11-26T13:47:14.950Z,11.80
2022-11-26T13:49:57.514Z,11.80
2022-11-26T13:52:34.719Z,11.80
2022-11-26T13:55:11.850Z,11.80
2022-11-26T13:57:46.608Z,11.80
2022-11-26T14:00:34.406Z,11.80
2022-11-26T14:03:02.520Z,11.80
2022-11-26T14:05:50.965Z,11.80
2022-11-26T14:08:44.940Z,11.80
2022-11-26T14:11:15.187Z,11.80
2022-11-26T14:14:23.623Z,11.80
2022-11-26T14:17:02.912Z,11.80
2022-11-26T14:19:41.694Z,11.80
2022-11-26T14:22:11.376Z,11.80
2022-11-26T14:24:50.411Z,11.80
2022-11-26T14:27:33.304Z,11.70
2022-11-26T14:30:24.316Z,11.70
2022-11-26T14:32:51.000Z,11.70
2022-11-26T14:35:34.304Z,11.60
2022-11-26T14:38:03.754Z,11.70
2022-11-26T14:40:33.856Z,11.60
2022-11-26T14:43:19.454Z,11.60
2022-11-26T14:46:03.118Z,11.60
2022-11-26T14:48:31.795Z,11.60
2022-11-26T14:51:00.271Z,11.60
2022-11-26T14:53:30.771Z,11.60
2022-11-26T14:55:58.277Z,11.60
2022-11-26T14:58:50.164Z,11.60
2022-11-26T15:01:21.670Z,11.70
2022-11-26T15:04:01.726Z,11.70
2022-11-26T15:06:38.219Z,11.70
2022-11-26T15:09:15.016Z,11.70
2022-11-26T15:11:54.059Z,11.70
2022-11-26T15:14:39.940Z,11.60
2022-11-26T15:17:10.431Z,11.60
2022-11-26T15:19:38.086Z,11.60
2022-11-26T15:22:08.683Z,11.60
2022-11-26T15:24:36.145Z,11.50
2022-11-26T15:27:03.643Z,11.50
2022-11-26T15:29:37.144Z,11.50
2022-11-26T15:32:04.484Z,11.50
2022-11-26T15:34:32.940Z,11.40
2022-11-26T15:37:00.879Z,11.40
2022-11-26T15:39:30.483Z,11.40
2022-11-26T15:42:05.987Z,11.30
2022-11-26T15:44:40.584Z,11.30
2022-11-26T15:47:20.367Z,11.20
2022-11-26T15:49:52.049Z,11.10
2022-11-26T15:52:24.301Z,11.10
2022-11-26T15:55:17.548Z,11.00
2022-11-26T15:57:49.959Z,11.00
2022-11-26T16:00:30.557Z,10.90
2022-11-26T16:02:57.448Z,10.90
2022-11-26T16:05:31.402Z,10.80
2022-11-26T16:08:22.332Z,10.80
2022-11-26T16:10:57.603Z,10.70
2022-11-26T16:13:28.898Z,10.70
2022-11-26T16:16:08.737Z,10.60
2022-11-26T16:18:37.075Z,10.60
2022-11-26T16:21:21.762Z,10.60
2022-11-26T16:23:54.049Z,10.50
2022-11-26T16:26:20.771Z,10.50
2022-11-26T16:28:48.093Z,10.40
2022-11-26T16:31:16.947Z,10.40
2022-11-26T16:33:44.239Z,10.40
2022-11-26T16:36:24.645Z,10.40
2022-11-26T16:38:51.747Z,10.30
2022-11-26T16:41:20.803Z,10.30
2022-11-26T16:43:48.541Z,10.30
2022-11-26T16:46:19.096Z,10.30
2022-11-26T16:48:47.214Z,10.30
2022-11-26T16:51:14.299Z,10.20
2022-11-26T16:53:41.271Z,10.20
2022-11-26T16:56:26.364Z,10.20
2022-11-26T16:58:53.919Z,10.20
2022-11-26T17:01:20.694Z,10.20
2022-11-26T17:03:47.498Z,10.20
2022-11-26T17:06:19.213Z,10.20
2022-11-26T17:08:49.732Z,10.20
2022-11-26T17:11:17.660Z,10.10
2022-11-26T17:13:44.403Z,10.10
2022-11-26T17:16:21.771Z,10.10
2022-11-26T17:18:49.928Z,10.10
2022-11-26T17:21:16.655Z,10.10
2022-11-26T17:23:43.387Z,10.10
2022-11-26T17:26:28.291Z,10.10
2022-11-26T17:28:54.943Z,10.10
2022-11-26T17:31:21.747Z,10.10
2022-11-26T17:33:48.532Z,10.10
2022-11-26T17:36:23.518Z,10.00
2022-11-26T17:38:50.314Z,10.00
2022-11-26T17:41:17.417Z,10.00
2022-11-26T17:43:44.217Z,10.00
2022-11-26T17:46:16.784Z,10.00
2022-11-26T17:48:44.280Z,10.00
2022-11-26T17:51:13.312Z,10.00
2022-11-26T17:53:40.893Z,10.00
2022-11-26T17:56:18.818Z,9.90
2022-11-26T17:58:49.119Z,10.00
2022-11-26T18:01:17.012Z,9.90
2022-11-26T18:03:45.271Z,9.90
2022-11-26T18:06:32.166Z,9.90
2022-11-26T18:08:58.893Z,9.90
2022-11-26T18:11:43.082Z,9.90
2022-11-26T18:14:11.652Z,9.90
2022-11-26T18:16:41.190Z,9.80
2022-11-26T18:19:09.758Z,9.80
2022-11-26T18:21:37.480Z,9.80
2022-11-26T18:24:05.405Z,9.80
2022-11-26T18:26:32.708Z,9.80
2022-11-26T18:29:01.735Z,9.80
2022-11-26T18:31:29.195Z,9.70
2022-11-26T18:33:56.096Z,9.70
2022-11-26T18:36:23.157Z,9.70
2022-11-26T18:38:49.822Z,9.70
2022-11-26T18:41:16.714Z,9.70
2022-11-26T18:43:43.646Z,9.70
2022-11-26T18:46:15.659Z,9.60
2022-11-26T18:48:47.822Z,9.60
2022-11-26T18:51:16.849Z,9.60
2022-11-26T18:53:44.442Z,9.60
2022-11-26T18:56:16.017Z,9.60
2022-11-26T18:58:43.451Z,9.60
2022-11-26T19:01:18.319Z,9.50
2022-11-26T19:03:45.301Z,9.50
2022-11-26T19:06:21.161Z,9.50
2022-11-26T19:08:49.107Z,9.50
2022-11-26T19:11:20.040Z,9.50
2022-11-26T19:13:48.011Z,9.40
2022-11-26T19:16:17.640Z,9.40
2022-11-26T19:18:45.662Z,9.40
2022-11-26T19:21:20.070Z,9.40
2022-11-26T19:23:48.067Z,9.40
2022-11-26T19:26:15.408Z,9.40
2022-11-26T19:28:42.402Z,9.40
2022-11-26T19:31:15.025Z,9.40
2022-11-26T19:33:42.337Z,9.40
2022-11-26T19:36:12.829Z,9.30
2022-11-26T19:38:39.833Z,9.30
2022-11-26T19:41:06.978Z,9.30
2022-11-26T19:43:39.795Z,9.30
2022-11-26T19:46:12.113Z,9.30
2022-11-26T19:48:41.065Z,9.30
2022-11-26T19:51:09.268Z,9.30
2022-11-26T19:53:36.897Z,9.30
2022-11-26T19:56:05.286Z,9.30
2022-11-26T19:58:34.100Z,9.30
2022-11-26T20:01:01.319Z,9.30
2022-11-26T20:03:30.736Z,9.30
2022-11-26T20:06:06.517Z,9.30
2022-11-26T20:08:34.565Z,9.30
2022-11-26T20:11:03.005Z,9.30
2022-11-26T20:13:31.552Z,9.20
2022-11-26T20:15:58.256Z,9.30
2022-11-26T20:18:24.945Z,9.30
2022-11-26T20:21:09.449Z,9.30
2022-11-26T20:23:39.434Z,9.30
2022-11-26T20:26:17.775Z,9.20
2022-11-26T20:28:44.870Z,9.20
2022-11-26T20:31:12.821Z,9.20
2022-11-26T20:33:39.713Z,9.20
2022-11-26T20:36:11.602Z,9.20
2022-11-26T20:38:40.091Z,9.20
2022-11-26T20:41:11.451Z,9.20
2022-11-26T20:43:38.376Z,9.20
2022-11-26T20:46:07.114Z,9.20
2022-11-26T20:48:35.388Z,9.20
2022-11-26T20:51:07.015Z,9.20
2022-11-26T20:53:35.816Z,9.20
2022-11-26T20:56:02.937Z,9.20
2022-11-26T20:58:30.021Z,9.10
2022-11-26T21:00:57.445Z,9.10
2022-11-26T21:03:25.937Z,9.10
2022-11-26T21:05:52.869Z,9.10
2022-11-26T21:08:21.703Z,9.10
2022-11-26T21:10:49.699Z,9.10
2022-11-26T21:13:18.729Z,9.10
2022-11-26T21:15:49.132Z,9.10
2022-11-26T21:18:15.789Z,9.10
2022-11-26T21:20:43.727Z,9.00
2022-11-26T21:23:12.106Z,9.00
2022-11-26T21:25:43.399Z,9.00
2022-11-26T21:28:11.759Z,9.00
2022-11-26T21:30:38.732Z,9.00
2022-11-26T21:33:09.301Z,8.90
2022-11-26T21:35:37.319Z,8.90
2022-11-26T21:38:05.304Z,8.90
2022-11-26T21:40:33.068Z,8.80
2022-11-26T21:42:59.750Z,8.80
2022-11-26T21:45:27.658Z,8.80
2022-11-26T21:47:54.658Z,8.80
2022-11-26T21:50:21.655Z,8.70
2022-11-26T21:52:48.420Z,8.70
2022-11-26T21:55:15.203Z,8.70
2022-11-26T21:57:41.870Z,8.70
2022-11-26T22:00:09.234Z,8.70
2022-11-26T22:02:36.069Z,8.70
2022-11-26T22:05:02.903Z,8.60
2022-11-26T22:07:30.674Z,8.60
2022-11-26T22:09:57.600Z,8.60
2022-11-26T22:12:24.376Z,8.60
2022-11-26T22:14:51.168Z,8.50
2022-11-26T22:17:17.906Z,8.50
2022-11-26T22:19:44.686Z,8.50
2022-11-26T22:22:11.389Z,8.50
2022-11-26T22:24:38.060Z,8.40
2022-11-26T22:27:04.733Z,8.40
2022-11-26T22:29:31.418Z,8.40
2022-11-26T22:31:58.325Z,8.40
2022-11-26T22:34:26.874Z,8.40
2022-11-26T22:36:53.630Z,8.40
2022-11-26T22:39:20.389Z,8.30
2022-11-26T22:41:48.287Z,8.30
2022-11-26T22:44:16.127Z,8.30
2022-11-26T22:46:43.317Z,8.30
2022-11-26T22:49:15.554Z,8.30
2022-11-26T22:51:42.540Z,8.30
2022-11-26T22:54:12.019Z,8.30
2022-11-26T22:56:39.398Z,8.20
2022-11-26T22:59:08.546Z,8.30
2022-11-26T23:01:37.035Z,8.20
2022-11-26T23:04:07.605Z,8.20
2022-11-26T23:06:35.500Z,8.20
2022-11-26T23:09:04.437Z,8.20
2022-11-26T23:11:34.457Z,8.20
2022-11-26T23:14:07.387Z,8.20
2022-11-26T23:16:35.888Z,8.20
2022-11-26T23:19:04.004Z,8.20
2022-11-26T23:21:34.440Z,8.20
2022-11-26T23:24:01.445Z,8.20
2022-11-26T23:26:31.181Z,8.10
2022-11-26T23:28:59.274Z,8.10
2022-11-26T23:31:32.214Z,8.10
2022-11-26T23:33:59.743Z,8.10
2022-11-26T23:36:27.733Z,8.10
2022-11-26T23:38:55.014Z,8.10
2022-11-26T23:41:22.114Z,8.10
2022-11-26T23:43:48.935Z,8.10
2022-11-26T23:46:17.732Z,8.10
2022-11-26T23:48:45.707Z,8.10
2022-11-26T23:51:21.064Z,8.10
2022-11-26T23:53:48.652Z,8.10
2022-11-26T23:56:18.753Z,8.10
2022-11-26T23:58:49.778Z,8.10
